メインページ
METAR-TAF:

METAR-TAF

空港 :

モントリオール・トルドー, ケベック州, カナダ

モントリオール・ピエール・エリオット・トルドー国際空港

緯度: 45-28N, 経度: 073-45W, 海抜: 31m

現時点の気象観測

当レポートは39分前の01:00(UTC)に作成
北/北西の風 7kt
気温 13°C
湿度 47%
気圧 1016 hPa
視程: 24.1km
高度12000ftの曇り

METAR: CYUL 240100Z 33007KT 15SM OVC120 13/02 A3000 RMK AC8 PRESRR SLP163

時間: 21:39 (01:39 UTC)

予報

当レポートは2時間1分前の23:38(UTC)に作成
予報は24日の 00時(UTC)から 24日の 24時(UTC)まで有効
南西の風 15kt、最大25ktの突風を伴う
視程: 10km
高度8000ftの千切れ雲あり
高度14000ftの曇り
24日の 00時(UTC)から 24日の 02時(UTC)まで一時的に
視程: 10km
高度7000ftの曇り
弱いにわか雨
24日の 00時(UTC)から 24日の 02時(UTC)まで徐々に
北西の風 10kt
24日の 0300時(UTC)から
北/北西の風 10kt
視程: 10km
高度6000ftの曇り
24日の 04時(UTC)から 24日の 06時(UTC)まで徐々に
の風 10kt
24日の 0800時(UTC)から
北/北東の風 12kt
視程: 10km
高度12000ftの雲は散在している
24日の 1500時(UTC)から
北東の風 12kt
視程: 10km
高度18000ftの雲は散在している

TAF: CYUL 232338Z 2400/2424 23015G25KT P6SM BKN080 OVC140 TEMPO 2400/2402 P6SM -SHRA OVC070 BECMG 2400/2402 32010KT FM240300 33010KT P6SM OVC060 BECMG 2404/2406 36010KT FM240800 02012KT P6SM SCT120 FM241500 05012KT P6SM SCT180 RMK NXT FCST BY 240300Z

4,000以上の空港の気象観測と天気予報(METAR報とTAF報)

利用可能な観測所は地図上に黄色い丸と赤い丸で示す。

丸の上にカーソルを重ねると観測所名を参照できる。

次にクリックすると気象観測と天気予報を参照できる。

マップの切り替え:黒色「×」印の緑ボタンをクリックして拡大、「-」印の緑ボタンをクリックして縮小、緑色の三角印をクリックして隣りの地図に切り替え


METAR-TAF: